Wolgastern — CQLH — position and weather

sailwx.info

Track history (hours):
 
Tides and Currents Weather Stations Pressure Air Temp Water Temp Dewpoint Dewpoint Depression Visibility Wind Speed Wind Dir Waves Ship Positions

Wolgastern

Last reported at 2016-Apr-15 10:33 UTC. Time now 2016-May-04 11:46 UTC.
Position N 29°49' W 090°00'.
Warning: this ship's position is 19 days out of date.

Length 162 m; draft 8.5 m.

Type: Ship. MMSI: 255804950.

Date/timePositionNaut miles runAvg speedWind from/ knotsBaromVisibWave heightAir tempDewpointWater temp
2016-Apr-15 10:33N 29°49' W 090°00'7 6.9
2016-Apr-15 09:33N 29°55' W 089°57'10 9.6
2016-Apr-15 08:33N 29°56' W 090°08'  
2016-Apr-08 18:33N 25°36' W 079°50'9 8.7
2016-Apr-08 17:34N 25°44' W 079°50'9 8.6
2016-Apr-08 16:32N 25°53' W 079°49'9 8.8
2016-Apr-08 15:33N 26°02' W 079°49'9 8.9
2016-Apr-08 14:33N 26°11' W 079°49'9 9.0
2016-Apr-08 13:34N 26°20' W 079°49'1010.1
2016-Apr-08 12:33N 26°30' W 079°49'1010.5
2016-Apr-08 11:34N 26°40' W 079°48'10 9.8
2016-Apr-08 10:31N 26°50' W 079°48'9 9.2
2016-Apr-08 09:33N 26°59' W 079°48'9 8.8
2016-Apr-08 08:31N 27°08' W 079°48'  
Track history (hours):
 
Tides and Currents Weather Stations Pressure Air Temp Water Temp Dewpoint Dewpoint Depression Visibility Wind Speed Wind Dir Waves Ship Positions

Wolgastern

Last reported at 2016-Apr-15 10:33 UTC. Time now 2016-May-04 11:46 UTC.
Position N 29°49' W 090°00'.
Warning: this ship's position is 19 days out of date.

Length 162 m; draft 8.5 m.

Type: Ship. MMSI: 255804950.

Date/timePositionNaut miles runAvg speedWind from/ knotsBaromVisibWave heightAir tempDewpointWater temp
2016-Apr-15 10:33N 29°49' W 090°00'7 6.9
2016-Apr-15 09:33N 29°55' W 089°57'10 9.6
2016-Apr-15 08:33N 29°56' W 090°08'  
2016-Apr-08 18:33N 25°36' W 079°50'9 8.7
2016-Apr-08 17:34N 25°44' W 079°50'9 8.6
2016-Apr-08 16:32N 25°53' W 079°49'9 8.8
2016-Apr-08 15:33N 26°02' W 079°49'9 8.9
2016-Apr-08 14:33N 26°11' W 079°49'9 9.0
2016-Apr-08 13:34N 26°20' W 079°49'1010.1
2016-Apr-08 12:33N 26°30' W 079°49'1010.5
2016-Apr-08 11:34N 26°40' W 079°48'10 9.8
2016-Apr-08 10:31N 26°50' W 079°48'9 9.2
2016-Apr-08 09:33N 26°59' W 079°48'9 8.8
2016-Apr-08 08:31N 27°08' W 079°48'  

Dump ship's entire track history